Lokaal brand risico:
CBI


Regionaal brand risico: Meer informatie


Weerstation
Sluispark-LeuvenLeuven-Sluispark



Nabijgelegen vliegvelden - METAR rapporten

   
EBBR - Wilsele bij Leuven
Gewijzigd: 07-07-2020 19:20
Helder    Wind: WNW 9.3 km/h
Helder
Wind: Wind: WNW 9.3 km/h
Temperatuur: 19°C
Dauwpunt: 10°C
Vochtigheid: 56%
Barometer: 1018 hPa
Zicht: meer dan 10 km
Bewolking: Helder
EBBR 071720Z 30005KT 260V330 CAVOK 19/10 Q1018 NOSIG
EBAW - Antwerp
Gewijzigd: 07-07-2020 19:50
Helder    Wind: varieert 3.7 km/h
Helder
Wind: Wind: varieert 3.7 km/h
Temperatuur: 19°C
Dauwpunt: 9°C
Vochtigheid: 52%
Barometer: 1018 hPa
Zicht: meer dan 10 km
Bewolking: Helder
EBAW 071750Z VRB02KT CAVOK 19/09 Q1018 NOSIG
EBLG - Li├Ęge
Gewijzigd: 07-07-2020 19:50
Helder    Wind: NNW 7.4 km/h
Helder
Wind: Wind: NNW 7.4 km/h
Temperatuur: 18°C
Dauwpunt: 9°C
Vochtigheid: 56%
Barometer: 1018 hPa
Zicht: meer dan 10 km
Bewolking: Helder
EBLG 071750Z 34004KT 310V010 CAVOK 18/09 Q1018 NOSIG
EBCV - Mons/Bergen
Gewijzigd: 07-07-2020 19:25
Grotendeels bewolkt    Wind: Westen 16.7 km/h
Grotendeels bewolkt
Wind: Wind: Westen 16.7 km/h
Temperatuur: 21°C
Dauwpunt: 9°C
Vochtigheid: 46%
Barometer: 1018 hPa
Bewolking: Grotendeels bewolkt
Zicht: meer dan 10 km
Bewolking: Grotendeels bewolkt 2499.4 m
EBCV 071725Z AUTO 28009KT 9999 BKN082/// 21/09 Q1018 BLU
ELLX - Luxemburg
Gewijzigd: 07-07-2020 19:50
Helder    Wind: Westen 18.5 km/h
Helder
Wind: Wind: Westen 18.5 km/h
Temperatuur: 20°C
Dauwpunt: 6°C
Vochtigheid: 40%
Barometer: 1019 hPa
Zicht: meer dan 10 km
Bewolking: Helder
ELLX 071750Z 27010KT CAVOK 20/06 Q1019 NOSIG
EBOS - Oostende
Gewijzigd: 07-07-2020 19:50
Licht bewolkt    Wind: Westen 33.3 km/h
Licht bewolkt
Wind: Wind: Westen 33.3 km/h
Temperatuur: 17°C
Dauwpunt: 11°C
Vochtigheid: 68%
Barometer: 1018 hPa
Bewolking: Licht bewolkt
Zicht: meer dan 10 km
Bewolking: Licht bewolkt 1341.1 m
EBOS 071750Z 27018KT 9999 FEW044 17/11 Q1018 NOSIG

Script ontwikkeld door  Saratoga-weather.org Aangepast voor de template door  Weerstation Leuven

U vindt ons ook hier:

UK Metoffice

WeatherCloud

European Weather Network

Weather Underground

Benelux Weather Network

AWEKAS

WeatherlinkIP

HAMweather, WeatherForYou, PWS Weather

Het Weer Aktueel

Apparatuur in gebruik:

Weer-station
Davis VP2 weatherstation

Weer-programma
Meteobridge

Weer-computer
D-Link DIR-505

Webleverancier
Robohost

Davis VP2 weatherstation

Meteobridge

D-Link DIR-505

Robohost